Flight Track Log - Related Links

Times and Time Zones

All times are in EDT time to prevent confusion due to time zone crossing. See the CES514 flight status page for this flight to view local times or setup timezone preferences in your user account.

Time Position Orientation Groundspeed Altitude Reporting Facility
EDT Latitude Longitude Course Direction KTS MPH feet Rate Location/Type
Wed 01:11:00 PM 15.5483 106.9294 38° Northeast  Level Estimated
Wed 01:12:00 PM 15.6707 107.0303 38° Northeast  Level Estimated
Wed 01:13:00 PM 15.7931 107.1314 38° Northeast  Level Estimated
Wed 01:14:00 PM 15.9155 107.2327 39° Northeast  Level Estimated
Wed 01:15:00 PM 16.0378 107.3340 39° Northeast  Level Estimated
Wed 01:16:00 PM 16.1600 107.4355 39° Northeast  Level Estimated
Wed 01:17:00 PM 16.2822 107.5371 39° Northeast  Level Estimated
Wed 01:18:00 PM 16.4043 107.6388 39° Northeast  Level Estimated
Wed 01:19:00 PM 16.5264 107.7406 39° Northeast  Level Estimated
Wed 01:20:00 PM 16.6485 107.8426 39° Northeast  Level Estimated
Wed 01:21:00 PM 16.7705 107.9447 39° Northeast  Level Estimated
Wed 01:22:00 PM 16.8924 108.0470 39° Northeast  Level Estimated
Wed 01:23:00 PM 17.0143 108.1493 39° Northeast  Level Estimated
Wed 01:24:00 PM 17.1362 108.2518 39° Northeast  Level Estimated
Wed 01:25:00 PM 17.2579 108.3545 39° Northeast  Level Estimated
Wed 01:26:00 PM 17.3797 108.4573 39° Northeast  Level Estimated
Wed 01:27:00 PM 17.5014 108.5602 39° Northeast  Level Estimated
Wed 01:28:00 PM 17.6230 108.6632 39° Northeast  Level Estimated
Wed 01:29:00 PM 17.7446 108.7664 39° Northeast  Level Estimated
Wed 01:30:00 PM 17.8661 108.8697 39° Northeast  Level Estimated
Wed 01:31:00 PM 17.9876 108.9732 39° Northeast  Level Estimated
Wed 01:32:00 PM 18.1090 109.0768 39° Northeast  Level Estimated
Wed 01:33:00 PM 18.2304 109.1806 39° Northeast  Level Estimated
Wed 01:34:00 PM 18.3517 109.2845 39° Northeast  Level Estimated
Wed 01:35:00 PM 18.4729 109.3885 39° Northeast  Level Estimated
Wed 01:36:00 PM 18.5941 109.4927 39° Northeast  Level Estimated
Wed 01:37:00 PM 18.7152 109.5971 39° Northeast  Level Estimated
Wed 01:38:00 PM 18.8363 109.7016 39° Northeast  Level Estimated
Wed 01:39:00 PM 18.9573 109.8062 39° Northeast  Level Estimated
Wed 01:40:00 PM 19.0783 109.9110 39° Northeast  Level Estimated
Wed 01:41:00 PM 19.1992 110.0159 39° Northeast  Level Estimated
Wed 01:42:00 PM 19.3200 110.1210 39° Northeast  Level Estimated
Wed 01:43:00 PM 19.4408 110.2263 39° Northeast  Level Estimated
Wed 01:44:00 PM 19.5615 110.3317 39° Northeast  Level Estimated
Wed 01:45:00 PM 19.6822 110.4373 39° Northeast  Level Estimated
Wed 01:46:00 PM 19.8028 110.5430 40° Northeast  Level Estimated
Wed 01:47:00 PM 19.9233 110.6489 40° Northeast  Level Estimated
Wed 01:48:00 PM 20.0438 110.7550 40° Northeast  Level Estimated
Wed 01:49:00 PM 20.1642 110.8612 40° Northeast  Level Estimated
Wed 01:50:00 PM 20.2845 110.9676 40° Northeast  Level Estimated
Wed 01:51:00 PM 20.4048 111.0741 40° Northeast  Level Estimated
Wed 01:52:00 PM 20.5250 111.1808 40° Northeast  Level Estimated
Wed 01:53:00 PM 20.6452 111.2877 40° Northeast  Level Estimated
Wed 01:54:00 PM 20.7653 111.3948 40° Northeast  Level Estimated
Wed 01:55:00 PM 20.8607 111.4800 40° Northeast  Level Estimated
Wed 01:56:00 PM 20.9561 111.5654 40° Northeast  Level Estimated
Wed 01:57:00 PM 21.0515 111.6508 40° Northeast  Level Estimated
Wed 01:58:00 PM 21.1468 111.7364 40° Northeast  Level Estimated
Wed 01:59:00 PM 21.2421 111.8221 40° Northeast  Level Estimated
Wed 02:00:00 PM 21.3373 111.9079 40° Northeast  Level Estimated
Wed 02:01:00 PM 21.4325 111.9938 40° Northeast  Level Estimated
Wed 02:02:00 PM 21.5276 112.0798 40° Northeast  Level Estimated
Wed 02:03:00 PM 21.6227 112.1659 40° Northeast  Level Estimated
Wed 02:04:00 PM 21.7178 112.2522 40° Northeast  Level Estimated
Wed 02:05:00 PM 21.8128 112.3385 40° Northeast  Level Estimated
Wed 02:06:00 PM 21.9077 112.4250 40° Northeast  Level Estimated
Wed 02:07:00 PM 22.0027 112.5116 40° Northeast  Level Estimated
Wed 02:08:00 PM 22.0975 112.5983 40° Northeast  Level Estimated
Wed 02:09:00 PM 22.1924 112.6851 40° Northeast  Level Estimated
Wed 02:10:00 PM 22.2872 112.7721 40° Northeast  Level Estimated
Wed 02:11:00 PM 22.3819 112.8591 40° Northeast  Level Estimated
Wed 02:12:00 PM 22.4766 112.9463 40° Northeast  Level Estimated
Wed 02:13:00 PM 22.5712 113.0336 40° Northeast  Level Estimated
Wed 02:14:00 PM 22.6658 113.1210 40° Northeast  Level Estimated
Wed 02:15:00 PM 22.7604 113.2086 40° Northeast  Level Estimated
Wed 02:16:00 PM 22.8549 113.2962 41° Northeast  Level Estimated
Wed 02:17:00 PM 22.9493 113.3840 41° Northeast  Level Estimated
Wed 02:18:00 PM 23.0437 113.4719 41° Northeast  Level Estimated
Wed 02:18:12 PM 20.7529 114.3778 40° Northeast 513 590 35,000  Level FlightAware ADS-B
Wed 02:18:43 PM 20.8118 114.4305 40° Northeast 513 590 35,000  Level FlightAware ADS-B
Wed 02:19:11 PM 20.8640 114.4772 40° Northeast 511 588 35,000  Level FlightAware ADS-B
Wed 02:19:41 PM 20.9181 114.5258 40° Northeast 510 587 35,000  Level FlightAware ADS-B
Wed 02:20:13 PM 20.9733 114.5753 40° Northeast 508 585 35,000  Level FlightAware ADS-B
Wed 02:20:42 PM 21.0268 114.6234 40° Northeast 507 583 35,000  Level FlightAware ADS-B
Wed 02:21:11 PM 21.0803 114.6715 40° Northeast 507 583 35,000  Level FlightAware ADS-B
Wed 02:21:42 PM 21.1352 114.7208 40° Northeast 508 585 35,000  Level FlightAware ADS-B
Wed 02:22:12 PM 21.1883 114.7686 40° Northeast 508 585 35,000  Level FlightAware ADS-B
Wed 02:22:40 PM 21.2396 114.8149 40° Northeast 508 585 35,000  Level FlightAware ADS-B
Wed 02:23:11 PM 21.2942 114.8642 40° Northeast 508 585 35,000  Level FlightAware ADS-B
Wed 02:23:41 PM 21.3492 114.9139 40° Northeast 510 587 35,000  Level FlightAware ADS-B
Wed 02:24:11 PM 21.4011 114.9609 40° Northeast 511 588 35,000  Level FlightAware ADS-B
Wed 02:24:42 PM 21.4585 115.0129 40° Northeast 511 588 35,000  Level FlightAware ADS-B
Wed 02:25:09 PM 21.4737 115.0266 40° Northeast 511 588 35,000  Level FlightAware ADS-B
Wed 02:25:38 PM 21.5491 115.0950 40° Northeast 511 588 35,000  Level FlightAware ADS-B
Wed 02:32:54 PM 22.3475 115.8251 41° Northeast 510 587 35,000  Level FlightAware ADS-B
Wed 02:33:00 PM 22.3368 115.5990 31° Northeast  Level Estimated
Wed 02:33:45 PM 22.4360 115.9067 41° Northeast 508 585 35,000  Level FlightAware ADS-B
Wed 02:34:41 PM 22.5362 115.9992 41° Northeast 509 586 35,000  Level FlightAware ADS-B
Wed 02:35:25 PM 22.6167 116.0738 41° Northeast 509 586 35,000  Level FlightAware ADS-B
Wed 02:36:00 PM 22.6789 116.1314 41° Northeast 509 586 35,000  Level FlightAware ADS-B
Wed 02:36:44 PM 22.7529 116.2128 41° Northeast 508 585 35,000  Level FlightAware ADS-B
Wed 02:37:04 PM 22.7795 116.2532 55° Northeast 528 608 35,000  Level FlightAware ADS-B
Wed 02:37:42 PM 22.8385 116.3352 41° Northeast 506 582 35,000 81 Level FlightAware ADS-B
Wed 02:38:18 PM 22.9030 116.3894 37° Northeast 500 575 35,100 72 Climbing FlightAware ADS-B
Wed 02:39:05 PM 22.9872 116.4587 37° Northeast 505 581 35,100  Level FlightAware ADS-B
Wed 02:40:05 PM 23.1020 116.5538 38° Northeast 504 580 35,100  Level FlightAware ADS-B
Wed 02:41:03 PM 23.2072 116.6410 37° Northeast 503 579 35,100  Level FlightAware ADS-B
Wed 02:41:44 PM 23.2842 116.7051 38° Northeast 503 579 35,100  Level FlightAware ADS-B
Wed 02:43:18 PM 23.4547 116.8616 46° Northeast 516 594 35,100  Level FlightAware ADS-B
Wed 02:43:58 PM 23.5213 116.9373 46° Northeast 516 594 35,100  Level FlightAware ADS-B
Wed 02:44:41 PM 23.5879 117.0132 46° Northeast 516 594 35,100  Level FlightAware ADS-B
Wed 02:47:24 PM 23.8862 117.2724 45° Northeast 522 601 35,100  Level FlightAware ADS-B
Wed 02:58:53 PM 25.0762 118.5983 46° Northeast 540 621 35,100  Level FlightAware ADS-B
Wed 02:59:26 PM 25.1324 118.6642 48° Northeast 545 627 35,100  Level FlightAware ADS-B
Wed 03:00:02 PM 25.1938 118.7388 48° Northeast 546 628 35,100  Level FlightAware ADS-B
Wed 03:00:33 PM 25.2475 118.8039 48° Northeast 546 628 35,100  Level FlightAware ADS-B
Wed 03:01:03 PM 25.2979 118.8648 48° Northeast 546 628 35,100  Level FlightAware ADS-B
Wed 03:01:34 PM 25.3464 118.9236 48° Northeast 544 626 35,100  Level FlightAware ADS-B
Wed 03:02:18 PM 25.4257 119.0162 47° Northeast 542 624 35,100  Level FlightAware ADS-B
Wed 03:04:52 PM 25.6942 119.3210 39° Northeast 527 606 35,100  Level FlightAware ADS-B
Wed 03:06:11 PM 25.8554 119.4225 21° North 486 559 35,100  Level FlightAware ADS-B
Wed 03:08:41 PM 26.1720 119.5335 21° North 486 559 35,100  Level FlightAware ADS-B
Wed 03:13:14 PM 26.7262 119.9040 32° Northeast 513 590 35,100  Level FlightAware ADS-B
Wed 03:13:44 PM 26.7861 119.9442 28° Northeast 504 580 35,100  Level FlightAware ADS-B
Wed 03:16:05 PM 27.0830 120.0788 21° North 487 560 35,100  Level FlightAware ADS-B
Wed 03:16:37 PM 27.1471 120.1066 21° North 488 562 35,100  Level FlightAware ADS-B
Wed 03:19:00 PM 27.4258 120.2198 20° North  Level Estimated
Wed 03:20:00 PM 27.5427 120.2675 20° North  Level Estimated
Wed 03:21:00 PM 27.6596 120.3153 20° North  Level Estimated
Wed 03:22:00 PM 27.7765 120.3631 20° North  Level Estimated
Wed 03:23:00 PM 27.8934 120.4111 20° North  Level Estimated
Wed 03:24:00 PM 28.0103 120.4592 20° North  Level Estimated
Wed 03:25:00 PM 28.1271 120.5074 20° North  Level Estimated
Wed 03:26:00 PM 28.2439 120.5557 20° North  Level Estimated
Wed 03:27:00 PM 28.3607 120.6041 20° North  Level Estimated
Wed 03:28:00 PM 28.4775 120.6526 20° North  Level Estimated
Wed 03:29:00 PM 28.5943 120.7012 20° North  Level Estimated
Wed 03:30:00 PM 28.7110 120.7499 20° North  Level Estimated
Wed 03:31:00 PM 28.8278 120.7987 20° North  Level Estimated
Wed 03:32:00 PM 28.9445 120.8477 20° North  Level Estimated
Wed 03:33:00 PM 29.0612 120.8967 20° North  Level Estimated
Wed 03:34:00 PM 29.1779 120.9459 20° North  Level Estimated
Wed 03:35:00 PM 29.2945 120.9951 20° North  Level Estimated
Wed 03:36:00 PM 29.4112 121.0445 20° North  Level Estimated
Wed 03:37:00 PM 29.5278 121.0940 20° North  Level Estimated
Wed 03:38:00 PM 29.6444 121.1436 20° North  Level Estimated
Wed 03:39:00 PM 29.7610 121.1934 20° North  Level Estimated
Wed 03:40:00 PM 29.8776 121.2432 20° North  Level Estimated
Wed 03:41:00 PM 29.9942 121.2932 20° North  Level Estimated
Wed 03:42:00 PM 30.1107 121.3432 20° North  Level Estimated
Wed 03:43:00 PM 30.2272 121.3934 20° North  Level Estimated
Wed 03:44:00 PM 30.3437 121.4437 20° North  Level Estimated
Wed 03:45:00 PM 30.4602 121.4942 20° North  Level Estimated
Wed 03:46:00 PM 30.5767 121.5447 20° North  Level Estimated
Wed 03:47:00 PM 30.6931 121.5954 21° North  Level Estimated
Wed 03:48:00 PM 30.8095 121.6462 21° North  Level Estimated
Wed 03:49:00 PM 30.9259 121.6971 21° North  Level Estimated
Wed 03:50:00 PM 31.0423 121.7482 21° North  Level Estimated
Wed 03:51:00 PM 31.1428 121.7924 21° North  Level Estimated
Wed 03:52:00 PM 31.1428 121.7924 North  Level Estimated
Wed 03:53:00 PM 31.1428 121.7924 North  Level Estimated
Wed 03:54:00 PM 31.1428 121.7924 North  Level Estimated
Wed 03:55:00 PM 31.1428 121.7924 North  Level Estimated
Wed 03:56:00 PM 31.1428 121.7924 North  Level Estimated
Wed 03:57:00 PM 31.1428 121.7924 North  Level Estimated
Wed 03:58:00 PM 31.1428 121.7924 North  Level Estimated
Wed 03:59:00 PM 31.1428 121.7924 North  Level Estimated
Wed 04:00:00 PM 31.1428 121.7924 North  Level Estimated
Wed 04:01:00 PM 31.1428 121.7924 North  Level Estimated
Wed 04:02:00 PM 31.1428 121.7924 North  Level Estimated
Wed 04:03:00 PM 31.1428 121.7924 North  Level Estimated
Wed 04:04:00 PM 31.1428 121.7924 North  Level Estimated
Wed 04:05:00 PM 31.1428 121.7924 North  Level Estimated
Wed 04:06:00 PM 31.1428 121.7924 North  Level Estimated
Wed 04:07:00 PM 31.1428 121.7924 North  Level Estimated
Wed 04:08:00 PM 31.1428 121.7924 North  Level Estimated

Login

Don't have an account? Register now (free) for customized features, flight alerts, and more!